»·PEaware :: WAT169 KAJO-KVCV

WAT169 :: KAJO-KVCV

FLIGHT INFORMATION

Flight Status: Arrived
Operator:
Walker Air Transport
More flights by this operator :: More flights under this callsign
Pilot: Marty P. (27464)
Aircraft: SOCATA TBM-900
(TBM9)
More flights by this aircraft type
Origin: KAJO Corona Mun
United States
Destination: KVCV Socal Logistics
United States
More flights between these airports :: More routes between these airports
Route: PDZ V442 APLES
File this flight plan on PilotEdge
Remarks:
Altitude:
(Current/Filed)
11,000ft
Speed:
(Current/Filed)
200kts
Departed: 03-Dec-20 07:14 PM
Arrived: 03-Dec-20 07:58 PM
Distance/Time
Traveled:
43nm/0:44
Distance/Time
To Go:
Arrived

Flight Plot

Page will automatically refresh every two minutes.


Map Options




Map Legend


Flown Route
Filed Route
Departure Airport
Arrival Airport
Navaid (VOR, NDB)
Fix

Horizontal Profiles

Position Reports

Time Latitude Longitude Heading Altitude Ground
Speed
03-Dec-20 18:34 33.896559 -117.602089 92 536ft 0kts
03-Dec-20 18:35 33.896559 -117.602089 92 536ft 0kts
03-Dec-20 18:36 33.896558 -117.602089 92 536ft 0kts
03-Dec-20 18:37 33.896558 -117.602089 92 536ft 0kts
03-Dec-20 18:38 33.896558 -117.602089 92 536ft 0kts
03-Dec-20 18:39 33.896558 -117.602089 92 536ft 0kts
03-Dec-20 18:40 33.896558 -117.602089 92 536ft 0kts
03-Dec-20 18:41 33.896558 -117.602089 92 536ft 0kts
03-Dec-20 18:42 33.896558 -117.602089 92 536ft 0kts
03-Dec-20 18:43 33.896558 -117.602089 92 536ft 0kts
03-Dec-20 18:44 33.896558 -117.602089 92 536ft 0kts
03-Dec-20 18:45 33.896558 -117.602089 92 536ft 0kts
03-Dec-20 18:46 33.896558 -117.602089 92 536ft 0kts
03-Dec-20 18:47 33.896558 -117.602089 92 536ft 0kts
03-Dec-20 18:48 33.896558 -117.602089 92 536ft 0kts
03-Dec-20 18:49 33.896558 -117.602089 92 536ft 0kts
03-Dec-20 18:50 33.896558 -117.602089 92 536ft 0kts
03-Dec-20 18:51 33.896558 -117.602089 92 536ft 0kts
03-Dec-20 18:52 33.896558 -117.602089 92 536ft 0kts
03-Dec-20 18:53 33.896558 -117.602089 92 536ft 0kts
03-Dec-20 18:54 33.896558 -117.602089 92 536ft 0kts
03-Dec-20 18:56 33.896558 -117.602089 92 536ft 0kts
03-Dec-20 18:57 33.896558 -117.602089 92 536ft 0kts
03-Dec-20 18:58 33.896558 -117.602089 92 536ft 0kts
03-Dec-20 18:59 33.896558 -117.602089 92 536ft 0kts
03-Dec-20 19:00 33.896558 -117.602089 92 536ft 0kts
03-Dec-20 19:01 33.896558 -117.602089 92 536ft 0kts
03-Dec-20 19:02 33.896558 -117.602089 92 536ft 0kts
03-Dec-20 19:03 33.896558 -117.602081 92 536ft 0kts
03-Dec-20 19:04 33.896558 -117.602081 92 536ft 0kts
03-Dec-20 19:05 33.896558 -117.602081 92 536ft 0kts
03-Dec-20 19:06 33.896558 -117.602081 92 536ft 0kts
03-Dec-20 19:07 33.896949 -117.602051 341 536ft 0kts
03-Dec-20 19:08 33.897182 -117.602161 334 536ft 0kts
03-Dec-20 19:09 33.897371 -117.602136 31 536ft 0kts
03-Dec-20 19:10 33.897317 -117.598369 87 536ft 16kts
03-Dec-20 19:11 33.897335 -117.597764 78 536ft 0kts
03-Dec-20 19:12 33.897335 -117.597764 78 536ft 0kts
03-Dec-20 19:13 33.897738 -117.597800 268 536ft 4kts
03-Dec-20 19:13 33.897689 -117.600964 269 536ft 75kts
03-Dec-20 19:15 33.917765 -117.622587 50 1996ft 135kts
03-Dec-20 19:15 33.912038 -117.587988 98 3520ft 132kts
03-Dec-20 19:16 33.912642 -117.538039 66 3906ft 162kts
03-Dec-20 19:17 33.941280 -117.501568 43 4493ft 149kts
03-Dec-20 19:18 33.968193 -117.508990 255 5292ft 137kts
03-Dec-20 19:19 33.936197 -117.522983 181 6181ft 132kts
03-Dec-20 19:20 33.917894 -117.549687 315 7192ft 150kts
03-Dec-20 19:21 33.949336 -117.527484 57 8178ft 159kts
03-Dec-20 19:22 33.979512 -117.493449 26 10127ft 155kts
03-Dec-20 19:23 34.024261 -117.466461 26 11022ft 205kts
03-Dec-20 19:24 34.073736 -117.436749 26 11008ft 202kts
03-Dec-20 19:25 34.126970 -117.404679 26 11004ft 219kts
03-Dec-20 19:26 34.174494 -117.376074 26 11001ft 223kts
03-Dec-20 19:27 34.210386 -117.354427 26 11000ft 224kts
03-Dec-20 19:28 34.266456 -117.320565 26 10182ft 221kts
03-Dec-20 19:29 34.319804 -117.288301 26 8987ft 199kts
03-Dec-20 19:30 34.364427 -117.261280 26 8249ft 171kts
03-Dec-20 19:31 34.405318 -117.236487 26 7991ft 155kts
03-Dec-20 19:32 34.445176 -117.212293 26 8004ft 164kts
03-Dec-20 19:33 34.486799 -117.187003 26 8001ft 168kts
03-Dec-20 19:34 34.529052 -117.161302 26 8000ft 170kts
03-Dec-20 19:35 34.573869 -117.145664 2 8000ft 169kts
03-Dec-20 19:36 34.620571 -117.145194 352 6853ft 160kts
03-Dec-20 19:37 34.660050 -117.156382 341 6610ft 148kts
03-Dec-20 19:38 34.699286 -117.178577 328 6604ft 160kts
03-Dec-20 19:39 34.735281 -117.212172 316 6601ft 164kts
03-Dec-20 19:40 34.764599 -117.255348 303 6600ft 166kts
03-Dec-20 19:41 34.785527 -117.306681 289 6055ft 172kts
03-Dec-20 19:42 34.796206 -117.363446 273 5189ft 164kts
03-Dec-20 19:43 34.763952 -117.376688 178 5093ft 150kts
03-Dec-20 19:44 34.717790 -117.379239 184 4318ft 156kts
03-Dec-20 19:45 34.675163 -117.383007 184 3981ft 143kts
03-Dec-20 19:46 34.638116 -117.386168 183 3223ft 131kts
03-Dec-20 19:47 34.602042 -117.391946 221 3723ft 133kts
03-Dec-20 19:48 34.612045 -117.427719 307 5905ft 127kts
03-Dec-20 19:49 34.611274 -117.479608 280 5999ft 162kts
03-Dec-20 19:50 34.620558 -117.533324 282 5999ft 161kts
03-Dec-20 19:51 34.596446 -117.553525 126 6004ft 158kts
03-Dec-20 19:52 34.605594 -117.504897 55 5342ft 167kts
03-Dec-20 19:53 34.626412 -117.457768 71 4014ft 145kts
03-Dec-20 19:54 34.638480 -117.417251 69 3983ft 116kts
03-Dec-20 19:55 34.641242 -117.377445 129 3807ft 132kts
03-Dec-20 19:56 34.614614 -117.353050 174 3298ft 133kts
03-Dec-20 19:57 34.595018 -117.372982 180 2857ft 4kts
03-Dec-20 19:58 34.593862 -117.372724 181 2859ft 0kts
03-Dec-20 19:59 34.592617 -117.370423 164 2858ft 19kts
03-Dec-20 20:00 34.591536 -117.369768 97 2859ft 0kts
03-Dec-20 20:01 34.591536 -117.369768 97 2859ft 0kts
03-Dec-20 20:02 34.591536 -117.369768 97 2859ft 0kts
03-Dec-20 20:03 34.591536 -117.369768 97 2859ft 0kts
03-Dec-20 20:04 34.591536 -117.369768 97 2859ft 0kts
03-Dec-20 20:05 34.591536 -117.369768 97 2859ft 0kts
03-Dec-20 20:06 34.591536 -117.369768 97 2859ft 0kts
03-Dec-20 20:07 34.591536 -117.369768 97 2859ft 0kts
03-Dec-20 20:08 34.591536 -117.369768 97 2859ft 0kts

Navigation Log

Ident Type
Flight plan parsing failed, navigation log unavailable